sensor_id;sensor_type;location;lat;lon;timestamp;P1;durP1;ratioP1;P2;durP2;ratioP2
39654;SDS011;25336;59.944;11.010;2022-12-10T00:01:25;13.25;;;7.65;;
39654;SDS011;25336;59.944;11.010;2022-12-10T00:03:52;15.20;;;6.57;;
39654;SDS011;25336;59.944;11.010;2022-12-10T00:06:21;15.52;;;7.32;;
39654;SDS011;25336;59.944;11.010;2022-12-10T00:08:49;11.75;;;6.68;;
39654;SDS011;25336;59.944;11.010;2022-12-10T00:11:16;12.20;;;6.55;;
39654;SDS011;25336;59.944;11.010;2022-12-10T00:13:43;12.60;;;6.50;;
39654;SDS011;25336;59.944;11.010;2022-12-10T00:16:10;8.80;;;5.05;;
39654;SDS011;25336;59.944;11.010;2022-12-10T00:18:37;10.52;;;5.30;;
39654;SDS011;25336;59.944;11.010;2022-12-10T00:21:04;8.55;;;5.05;;
39654;SDS011;25336;59.944;11.010;2022-12-10T00:23:31;6.93;;;5.25;;
39654;SDS011;25336;59.944;11.010;2022-12-10T00:26:11;9.70;;;4.72;;
39654;SDS011;25336;59.944;11.010;2022-12-10T00:28:38;10.48;;;6.07;;
39654;SDS011;25336;59.944;11.010;2022-12-10T00:31:05;9.13;;;6.15;;
39654;SDS011;25336;59.944;11.010;2022-12-10T00:33:33;12.15;;;6.15;;
39654;SDS011;25336;59.944;11.010;2022-12-10T00:36:03;12.65;;;6.75;;
39654;SDS011;25336;59.944;11.010;2022-12-10T00:38:30;9.93;;;5.10;;
39654;SDS011;25336;59.944;11.010;2022-12-10T00:40:56;11.68;;;6.22;;
39654;SDS011;25336;59.944;11.010;2022-12-10T00:43:22;15.75;;;6.60;;
39654;SDS011;25336;59.944;11.010;2022-12-10T00:45:47;9.75;;;5.85;;
39654;SDS011;25336;59.944;11.010;2022-12-10T00:48:13;8.50;;;5.28;;
39654;SDS011;25336;59.944;11.010;2022-12-10T00:50:38;13.52;;;6.00;;
39654;SDS011;25336;59.944;11.010;2022-12-10T00:53:04;10.75;;;5.88;;
39654;SDS011;25336;59.944;11.010;2022-12-10T00:55:29;10.98;;;6.13;;
39654;SDS011;25336;59.944;11.010;2022-12-10T00:57:55;11.93;;;6.00;;
39654;SDS011;25336;59.944;11.010;2022-12-10T01:00:20;12.27;;;6.03;;
39654;SDS011;25336;59.944;11.010;2022-12-10T01:02:46;8.30;;;5.28;;
39654;SDS011;25336;59.944;11.010;2022-12-10T01:05:12;8.93;;;5.13;;
39654;SDS011;25336;59.944;11.010;2022-12-10T01:07:37;7.57;;;4.43;;
39654;SDS011;25336;59.944;11.010;2022-12-10T01:10:03;6.22;;;4.47;;
39654;SDS011;25336;59.944;11.010;2022-12-10T01:12:29;8.65;;;4.57;;
39654;SDS011;25336;59.944;11.010;2022-12-10T01:14:55;6.00;;;4.00;;
39654;SDS011;25336;59.944;11.010;2022-12-10T01:17:20;5.50;;;3.75;;
39654;SDS011;25336;59.944;11.010;2022-12-10T01:19:46;5.60;;;4.03;;
39654;SDS011;25336;59.944;11.010;2022-12-10T01:22:12;5.68;;;3.95;;
39654;SDS011;25336;59.944;11.010;2022-12-10T01:24:38;7.18;;;5.45;;
39654;SDS011;25336;59.944;11.010;2022-12-10T01:27:03;6.10;;;5.03;;
39654;SDS011;25336;59.944;11.010;2022-12-10T01:29:29;5.18;;;4.60;;
39654;SDS011;25336;59.944;11.010;2022-12-10T01:31:55;5.05;;;4.10;;
39654;SDS011;25336;59.944;11.010;2022-12-10T01:34:22;5.45;;;4.00;;
39654;SDS011;25336;59.944;11.010;2022-12-10T01:36:52;6.05;;;3.75;;
39654;SDS011;25336;59.944;11.010;2022-12-10T01:39:20;10.60;;;4.63;;
39654;SDS011;25336;59.944;11.010;2022-12-10T01:41:50;4.88;;;4.32;;
39654;SDS011;25336;59.944;11.010;2022-12-10T01:46:48;4.90;;;4.38;;
39654;SDS011;25336;59.944;11.010;2022-12-10T01:49:20;10.60;;;4.72;;
39654;SDS011;25336;59.944;11.010;2022-12-10T01:51:48;10.52;;;5.78;;
39654;SDS011;25336;59.944;11.010;2022-12-10T01:54:20;8.52;;;5.38;;
39654;SDS011;25336;59.944;11.010;2022-12-10T01:56:54;8.57;;;4.35;;
39654;SDS011;25336;59.944;11.010;2022-12-10T01:59:24;5.32;;;3.75;;
39654;SDS011;25336;59.944;11.010;2022-12-10T02:07:13;5.65;;;3.63;;
39654;SDS011;25336;59.944;11.010;2022-12-10T02:15:27;5.85;;;4.30;;
39654;SDS011;25336;59.944;11.010;2022-12-10T02:17:58;5.20;;;4.18;;
39654;SDS011;25336;59.944;11.010;2022-12-10T02:20:33;6.40;;;4.35;;
39654;SDS011;25336;59.944;11.010;2022-12-10T02:23:07;8.52;;;5.35;;
39654;SDS011;25336;59.944;11.010;2022-12-10T02:31:39;8.70;;;5.78;;
39654;SDS011;25336;59.944;11.010;2022-12-10T02:34:18;10.35;;;6.55;;
39654;SDS011;25336;59.944;11.010;2022-12-10T02:36:47;8.18;;;5.47;;
39654;SDS011;25336;59.944;11.010;2022-12-10T02:39:18;7.97;;;5.47;;
39654;SDS011;25336;59.944;11.010;2022-12-10T02:41:50;8.88;;;4.70;;
39654;SDS011;25336;59.944;11.010;2022-12-10T02:44:18;8.05;;;4.78;;
39654;SDS011;25336;59.944;11.010;2022-12-10T02:46:47;4.50;;;3.67;;
39654;SDS011;25336;59.944;11.010;2022-12-10T02:49:17;4.20;;;3.58;;
39654;SDS011;25336;59.944;11.010;2022-12-10T02:51:43;5.80;;;3.42;;
39654;SDS011;25336;59.944;11.010;2022-12-10T02:57:04;5.22;;;3.75;;
39654;SDS011;25336;59.944;11.010;2022-12-10T03:05:02;4.03;;;2.88;;
39654;SDS011;25336;59.944;11.010;2022-12-10T03:07:55;3.05;;;2.60;;
39654;SDS011;25336;59.944;11.010;2022-12-10T03:10:28;5.55;;;3.08;;
39654;SDS011;25336;59.944;11.010;2022-12-10T03:13:14;4.70;;;3.05;;
39654;SDS011;25336;59.944;11.010;2022-12-10T03:15:42;3.78;;;3.17;;
39654;SDS011;25336;59.944;11.010;2022-12-10T03:18:10;3.35;;;3.05;;
39654;SDS011;25336;59.944;11.010;2022-12-10T03:20:41;4.25;;;2.92;;
39654;SDS011;25336;59.944;11.010;2022-12-10T03:23:10;4.93;;;3.22;;
39654;SDS011;25336;59.944;11.010;2022-12-10T03:28:06;3.33;;;2.63;;
39654;SDS011;25336;59.944;11.010;2022-12-10T03:30:32;5.07;;;3.55;;
39654;SDS011;25336;59.944;11.010;2022-12-10T03:33:00;4.07;;;3.53;;
39654;SDS011;25336;59.944;11.010;2022-12-10T03:35:26;5.55;;;3.15;;
39654;SDS011;25336;59.944;11.010;2022-12-10T03:37:52;3.95;;;3.30;;
39654;SDS011;25336;59.944;11.010;2022-12-10T03:40:20;3.83;;;3.03;;
39654;SDS011;25336;59.944;11.010;2022-12-10T03:42:47;2.78;;;2.55;;
39654;SDS011;25336;59.944;11.010;2022-12-10T03:45:13;3.92;;;3.55;;
39654;SDS011;25336;59.944;11.010;2022-12-10T03:47:39;7.05;;;2.70;;
39654;SDS011;25336;59.944;11.010;2022-12-10T03:50:06;4.80;;;3.17;;
39654;SDS011;25336;59.944;11.010;2022-12-10T03:52:32;5.68;;;3.85;;
39654;SDS011;25336;59.944;11.010;2022-12-10T03:54:57;4.05;;;3.00;;
39654;SDS011;25336;59.944;11.010;2022-12-10T03:57:23;4.50;;;3.30;;
39654;SDS011;25336;59.944;11.010;2022-12-10T03:59:49;4.10;;;2.83;;
39654;SDS011;25336;59.944;11.010;2022-12-10T04:02:15;4.53;;;3.40;;
39654;SDS011;25336;59.944;11.010;2022-12-10T04:04:40;9.77;;;4.03;;
39654;SDS011;25336;59.944;11.010;2022-12-10T04:07:06;8.55;;;3.95;;
39654;SDS011;25336;59.944;11.010;2022-12-10T04:09:32;8.75;;;3.80;;
39654;SDS011;25336;59.944;11.010;2022-12-10T04:11:58;7.68;;;3.50;;
39654;SDS011;25336;59.944;11.010;2022-12-10T04:14:24;6.65;;;3.78;;
39654;SDS011;25336;59.944;11.010;2022-12-10T04:17:09;10.85;;;4.72;;
39654;SDS011;25336;59.944;11.010;2022-12-10T04:19:35;11.85;;;5.55;;
39654;SDS011;25336;59.944;11.010;2022-12-10T04:22:01;9.75;;;4.55;;
39654;SDS011;25336;59.944;11.010;2022-12-10T04:24:46;10.85;;;3.90;;
39654;SDS011;25336;59.944;11.010;2022-12-10T04:27:31;8.75;;;4.38;;
39654;SDS011;25336;59.944;11.010;2022-12-10T04:30:00;5.78;;;3.72;;
39654;SDS011;25336;59.944;11.010;2022-12-10T04:32:26;5.05;;;3.45;;
39654;SDS011;25336;59.944;11.010;2022-12-10T04:34:53;6.93;;;3.47;;
39654;SDS011;25336;59.944;11.010;2022-12-10T04:37:19;4.15;;;3.03;;
39654;SDS011;25336;59.944;11.010;2022-12-10T04:39:46;3.05;;;2.75;;
39654;SDS011;25336;59.944;11.010;2022-12-10T04:42:11;5.00;;;3.55;;
39654;SDS011;25336;59.944;11.010;2022-12-10T04:44:37;3.42;;;3.00;;
39654;SDS011;25336;59.944;11.010;2022-12-10T04:47:04;6.40;;;2.92;;
39654;SDS011;25336;59.944;11.010;2022-12-10T04:49:31;4.43;;;2.88;;
39654;SDS011;25336;59.944;11.010;2022-12-10T04:51:57;4.55;;;2.97;;
39654;SDS011;25336;59.944;11.010;2022-12-10T04:54:22;4.80;;;2.95;;
39654;SDS011;25336;59.944;11.010;2022-12-10T04:56:48;3.67;;;2.97;;
39654;SDS011;25336;59.944;11.010;2022-12-10T04:59:14;5.05;;;3.35;;
39654;SDS011;25336;59.944;11.010;2022-12-10T05:01:40;5.53;;;3.75;;
39654;SDS011;25336;59.944;11.010;2022-12-10T05:04:06;6.97;;;3.53;;
39654;SDS011;25336;59.944;11.010;2022-12-10T05:06:33;3.88;;;3.30;;
39654;SDS011;25336;59.944;11.010;2022-12-10T05:08:59;5.28;;;4.28;;
39654;SDS011;25336;59.944;11.010;2022-12-10T05:11:27;5.80;;;3.83;;
39654;SDS011;25336;59.944;11.010;2022-12-10T05:13:54;3.50;;;2.95;;
39654;SDS011;25336;59.944;11.010;2022-12-10T05:16:21;3.22;;;2.92;;
39654;SDS011;25336;59.944;11.010;2022-12-10T05:18:48;5.70;;;3.22;;
39654;SDS011;25336;59.944;11.010;2022-12-10T05:21:15;3.63;;;3.33;;
39654;SDS011;25336;59.944;11.010;2022-12-10T05:23:44;4.63;;;3.10;;
39654;SDS011;25336;59.944;11.010;2022-12-10T05:28:39;4.68;;;3.20;;
39654;SDS011;25336;59.944;11.010;2022-12-10T05:31:13;4.45;;;3.55;;
39654;SDS011;25336;59.944;11.010;2022-12-10T05:33:40;4.15;;;3.75;;
39654;SDS011;25336;59.944;11.010;2022-12-10T05:36:05;4.55;;;3.70;;
39654;SDS011;25336;59.944;11.010;2022-12-10T05:38:32;3.70;;;3.08;;
39654;SDS011;25336;59.944;11.010;2022-12-10T05:41:05;4.47;;;3.53;;
39654;SDS011;25336;59.944;11.010;2022-12-10T05:43:42;3.95;;;3.53;;
39654;SDS011;25336;59.944;11.010;2022-12-10T05:46:10;3.05;;;2.75;;
39654;SDS011;25336;59.944;11.010;2022-12-10T05:48:38;3.17;;;2.85;;
39654;SDS011;25336;59.944;11.010;2022-12-10T05:51:04;4.55;;;3.72;;
39654;SDS011;25336;59.944;11.010;2022-12-10T05:53:34;4.85;;;3.60;;
39654;SDS011;25336;59.944;11.010;2022-12-10T05:56:03;4.68;;;3.42;;
39654;SDS011;25336;59.944;11.010;2022-12-10T05:58:31;6.18;;;3.58;;
39654;SDS011;25336;59.944;11.010;2022-12-10T06:00:57;8.48;;;5.35;;
39654;SDS011;25336;59.944;11.010;2022-12-10T06:03:24;4.85;;;4.20;;
39654;SDS011;25336;59.944;11.010;2022-12-10T06:05:52;8.90;;;5.47;;
39654;SDS011;25336;59.944;11.010;2022-12-10T06:08:17;6.32;;;4.90;;
39654;SDS011;25336;59.944;11.010;2022-12-10T06:10:43;6.57;;;4.80;;
39654;SDS011;25336;59.944;11.010;2022-12-10T06:13:09;5.40;;;4.03;;
39654;SDS011;25336;59.944;11.010;2022-12-10T06:15:37;6.35;;;4.63;;
39654;SDS011;25336;59.944;11.010;2022-12-10T06:18:04;5.55;;;4.68;;
39654;SDS011;25336;59.944;11.010;2022-12-10T06:20:30;6.28;;;4.72;;
39654;SDS011;25336;59.944;11.010;2022-12-10T06:22:55;8.88;;;5.88;;
39654;SDS011;25336;59.944;11.010;2022-12-10T06:25:21;8.75;;;5.50;;
39654;SDS011;25336;59.944;11.010;2022-12-10T06:27:46;9.15;;;5.25;;
39654;SDS011;25336;59.944;11.010;2022-12-10T06:30:12;5.88;;;4.20;;
39654;SDS011;25336;59.944;11.010;2022-12-10T06:32:38;5.75;;;4.85;;
39654;SDS011;25336;59.944;11.010;2022-12-10T06:35:04;6.93;;;5.57;;
39654;SDS011;25336;59.944;11.010;2022-12-10T06:37:30;5.30;;;4.78;;
39654;SDS011;25336;59.944;11.010;2022-12-10T06:39:56;10.00;;;5.88;;
39654;SDS011;25336;59.944;11.010;2022-12-10T06:42:22;7.43;;;6.22;;
39654;SDS011;25336;59.944;11.010;2022-12-10T06:44:47;8.15;;;5.72;;
39654;SDS011;25336;59.944;11.010;2022-12-10T06:47:13;6.95;;;5.28;;
39654;SDS011;25336;59.944;11.010;2022-12-10T06:49:39;6.78;;;5.03;;
39654;SDS011;25336;59.944;11.010;2022-12-10T06:52:05;4.97;;;4.47;;
39654;SDS011;25336;59.944;11.010;2022-12-10T06:54:31;6.75;;;5.00;;
39654;SDS011;25336;59.944;11.010;2022-12-10T06:56:57;5.68;;;4.13;;
39654;SDS011;25336;59.944;11.010;2022-12-10T06:59:23;5.45;;;4.30;;
39654;SDS011;25336;59.944;11.010;2022-12-10T07:01:48;10.57;;;6.63;;
39654;SDS011;25336;59.944;11.010;2022-12-10T07:04:14;5.63;;;4.57;;
39654;SDS011;25336;59.944;11.010;2022-12-10T07:06:40;7.90;;;4.97;;
39654;SDS011;25336;59.944;11.010;2022-12-10T07:09:06;8.88;;;4.93;;
39654;SDS011;25336;59.944;11.010;2022-12-10T07:11:31;7.60;;;4.85;;
39654;SDS011;25336;59.944;11.010;2022-12-10T07:13:58;10.27;;;4.15;;
39654;SDS011;25336;59.944;11.010;2022-12-10T07:16:24;9.32;;;5.63;;
39654;SDS011;25336;59.944;11.010;2022-12-10T07:18:52;7.88;;;4.93;;
39654;SDS011;25336;59.944;11.010;2022-12-10T07:21:20;7.90;;;5.20;;
39654;SDS011;25336;59.944;11.010;2022-12-10T07:23:46;10.25;;;6.28;;
39654;SDS011;25336;59.944;11.010;2022-12-10T07:26:12;23.88;;;9.35;;
39654;SDS011;25336;59.944;11.010;2022-12-10T07:28:38;25.45;;;9.05;;
39654;SDS011;25336;59.944;11.010;2022-12-10T07:31:04;21.85;;;8.73;;
39654;SDS011;25336;59.944;11.010;2022-12-10T07:33:31;13.90;;;7.80;;
39654;SDS011;25336;59.944;11.010;2022-12-10T07:35:56;11.68;;;9.35;;
39654;SDS011;25336;59.944;11.010;2022-12-10T07:38:23;13.32;;;9.00;;
39654;SDS011;25336;59.944;11.010;2022-12-10T07:40:49;19.90;;;12.25;;
39654;SDS011;25336;59.944;11.010;2022-12-10T07:43:16;15.48;;;10.32;;
39654;SDS011;25336;59.944;11.010;2022-12-10T07:45:41;14.32;;;8.68;;
39654;SDS011;25336;59.944;11.010;2022-12-10T07:48:07;24.75;;;13.82;;
39654;SDS011;25336;59.944;11.010;2022-12-10T07:50:33;47.92;;;24.92;;
39654;SDS011;25336;59.944;11.010;2022-12-10T07:52:59;43.60;;;21.42;;
39654;SDS011;25336;59.944;11.010;2022-12-10T07:55:24;39.47;;;20.55;;
39654;SDS011;25336;59.944;11.010;2022-12-10T07:57:50;36.85;;;18.52;;
39654;SDS011;25336;59.944;11.010;2022-12-10T08:00:16;27.65;;;15.00;;
39654;SDS011;25336;59.944;11.010;2022-12-10T08:02:42;23.50;;;11.60;;
39654;SDS011;25336;59.944;11.010;2022-12-10T08:05:07;15.85;;;9.38;;
39654;SDS011;25336;59.944;11.010;2022-12-10T08:07:33;12.38;;;8.07;;
39654;SDS011;25336;59.944;11.010;2022-12-10T08:09:59;12.77;;;7.90;;
39654;SDS011;25336;59.944;11.010;2022-12-10T08:12:25;15.32;;;8.18;;
39654;SDS011;25336;59.944;11.010;2022-12-10T08:14:51;9.90;;;7.45;;
39654;SDS011;25336;59.944;11.010;2022-12-10T08:17:16;12.82;;;8.50;;
39654;SDS011;25336;59.944;11.010;2022-12-10T08:19:42;11.02;;;7.38;;
39654;SDS011;25336;59.944;11.010;2022-12-10T08:22:08;14.02;;;9.32;;
39654;SDS011;25336;59.944;11.010;2022-12-10T08:24:34;15.65;;;9.88;;
39654;SDS011;25336;59.944;11.010;2022-12-10T08:26:59;14.48;;;10.13;;
39654;SDS011;25336;59.944;11.010;2022-12-10T08:29:25;15.52;;;9.25;;
39654;SDS011;25336;59.944;11.010;2022-12-10T08:31:50;13.10;;;10.68;;
39654;SDS011;25336;59.944;11.010;2022-12-10T08:34:17;13.45;;;9.30;;
39654;SDS011;25336;59.944;11.010;2022-12-10T08:36:43;19.17;;;11.48;;
39654;SDS011;25336;59.944;11.010;2022-12-10T08:39:10;20.08;;;12.30;;
39654;SDS011;25336;59.944;11.010;2022-12-10T08:41:40;44.28;;;23.55;;
39654;SDS011;25336;59.944;11.010;2022-12-10T08:44:06;50.92;;;27.83;;
39654;SDS011;25336;59.944;11.010;2022-12-10T08:46:32;53.15;;;30.27;;
39654;SDS011;25336;59.944;11.010;2022-12-10T08:48:57;45.22;;;25.02;;
39654;SDS011;25336;59.944;11.010;2022-12-10T08:51:23;43.85;;;19.23;;
39654;SDS011;25336;59.944;11.010;2022-12-10T08:53:50;33.53;;;19.13;;
39654;SDS011;25336;59.944;11.010;2022-12-10T08:56:15;26.35;;;17.05;;
39654;SDS011;25336;59.944;11.010;2022-12-10T08:58:41;39.20;;;16.17;;
39654;SDS011;25336;59.944;11.010;2022-12-10T09:01:08;32.60;;;19.42;;
39654;SDS011;25336;59.944;11.010;2022-12-10T09:03:35;29.27;;;16.52;;
39654;SDS011;25336;59.944;11.010;2022-12-10T09:06:12;28.67;;;17.33;;
39654;SDS011;25336;59.944;11.010;2022-12-10T09:08:39;30.70;;;20.55;;
39654;SDS011;25336;59.944;11.010;2022-12-10T09:11:06;42.75;;;25.42;;
39654;SDS011;25336;59.944;11.010;2022-12-10T09:13:34;34.45;;;19.70;;
39654;SDS011;25336;59.944;11.010;2022-12-10T09:15:59;39.97;;;21.08;;
39654;SDS011;25336;59.944;11.010;2022-12-10T09:18:25;34.90;;;18.30;;
39654;SDS011;25336;59.944;11.010;2022-12-10T09:20:51;31.90;;;18.85;;
39654;SDS011;25336;59.944;11.010;2022-12-10T09:23:17;32.28;;;18.98;;
39654;SDS011;25336;59.944;11.010;2022-12-10T09:25:42;32.65;;;18.55;;
39654;SDS011;25336;59.944;11.010;2022-12-10T09:28:08;34.13;;;18.92;;
39654;SDS011;25336;59.944;11.010;2022-12-10T09:30:34;29.52;;;18.77;;
39654;SDS011;25336;59.944;11.010;2022-12-10T09:32:59;29.00;;;17.75;;
39654;SDS011;25336;59.944;11.010;2022-12-10T09:35:25;21.88;;;13.82;;
39654;SDS011;25336;59.944;11.010;2022-12-10T09:37:51;22.95;;;12.88;;
39654;SDS011;25336;59.944;11.010;2022-12-10T09:40:17;38.22;;;24.10;;
39654;SDS011;25336;59.944;11.010;2022-12-10T09:45:30;40.58;;;20.05;;
39654;SDS011;25336;59.944;11.010;2022-12-10T09:48:04;29.48;;;16.30;;
39654;SDS011;25336;59.944;11.010;2022-12-10T09:53:33;27.42;;;14.45;;
39654;SDS011;25336;59.944;11.010;2022-12-10T09:56:00;37.08;;;20.25;;
39654;SDS011;25336;59.944;11.010;2022-12-10T09:58:26;33.85;;;20.08;;
39654;SDS011;25336;59.944;11.010;2022-12-10T10:00:56;23.27;;;12.65;;
39654;SDS011;25336;59.944;11.010;2022-12-10T10:03:24;19.95;;;10.55;;
39654;SDS011;25336;59.944;11.010;2022-12-10T10:05:51;24.00;;;12.63;;
39654;SDS011;25336;59.944;11.010;2022-12-10T10:10:56;84.88;;;33.00;;
39654;SDS011;25336;59.944;11.010;2022-12-10T10:13:42;56.53;;;26.08;;
39654;SDS011;25336;59.944;11.010;2022-12-10T10:18:52;95.47;;;48.35;;
39654;SDS011;25336;59.944;11.010;2022-12-10T10:21:27;97.95;;;44.55;;
39654;SDS011;25336;59.944;11.010;2022-12-10T10:23:56;78.75;;;39.22;;
39654;SDS011;25336;59.944;11.010;2022-12-10T10:26:25;67.30;;;33.50;;
39654;SDS011;25336;59.944;11.010;2022-12-10T10:28:56;53.47;;;28.48;;
39654;SDS011;25336;59.944;11.010;2022-12-10T10:31:25;42.30;;;23.45;;
39654;SDS011;25336;59.944;11.010;2022-12-10T10:33:55;39.15;;;20.75;;
39654;SDS011;25336;59.944;11.010;2022-12-10T10:36:27;46.75;;;22.23;;
39654;SDS011;25336;59.944;11.010;2022-12-10T10:38:54;49.33;;;24.35;;
39654;SDS011;25336;59.944;11.010;2022-12-10T10:41:20;118.28;;;49.53;;
39654;SDS011;25336;59.944;11.010;2022-12-10T10:43:51;71.63;;;32.20;;
39654;SDS011;25336;59.944;11.010;2022-12-10T10:46:24;44.80;;;21.20;;
39654;SDS011;25336;59.944;11.010;2022-12-10T10:48:51;39.75;;;19.20;;
39654;SDS011;25336;59.944;11.010;2022-12-10T10:51:21;21.15;;;11.68;;
39654;SDS011;25336;59.944;11.010;2022-12-10T10:53:51;27.02;;;13.75;;
39654;SDS011;25336;59.944;11.010;2022-12-10T10:56:24;22.33;;;12.25;;
39654;SDS011;25336;59.944;11.010;2022-12-10T11:04:16;22.45;;;12.18;;
39654;SDS011;25336;59.944;11.010;2022-12-10T11:06:45;26.38;;;13.57;;
39654;SDS011;25336;59.944;11.010;2022-12-10T11:12:53;39.75;;;20.20;;
39654;SDS011;25336;59.944;11.010;2022-12-10T11:17:49;27.00;;;14.75;;
39654;SDS011;25336;59.944;11.010;2022-12-10T11:20:18;20.23;;;11.13;;
39654;SDS011;25336;59.944;11.010;2022-12-10T11:22:53;25.50;;;14.18;;
39654;SDS011;25336;59.944;11.010;2022-12-10T11:25:26;22.40;;;14.38;;
39654;SDS011;25336;59.944;11.010;2022-12-10T11:30:58;22.30;;;12.25;;
39654;SDS011;25336;59.944;11.010;2022-12-10T11:33:41;33.72;;;15.40;;
39654;SDS011;25336;59.944;11.010;2022-12-10T11:36:26;25.77;;;13.93;;
39654;SDS011;25336;59.944;11.010;2022-12-10T11:50:14;20.52;;;11.35;;
39654;SDS011;25336;59.944;11.010;2022-12-10T11:58:53;19.75;;;11.15;;
39654;SDS011;25336;59.944;11.010;2022-12-10T12:01:59;20.50;;;12.55;;
39654;SDS011;25336;59.944;11.010;2022-12-10T12:07:51;24.30;;;14.43;;
39654;SDS011;25336;59.944;11.010;2022-12-10T12:10:41;31.98;;;15.07;;
39654;SDS011;25336;59.944;11.010;2022-12-10T12:13:19;34.72;;;17.70;;
39654;SDS011;25336;59.944;11.010;2022-12-10T12:16:02;29.42;;;16.15;;
39654;SDS011;25336;59.944;11.010;2022-12-10T12:21:12;32.85;;;15.57;;
39654;SDS011;25336;59.944;11.010;2022-12-10T12:26:13;35.92;;;18.92;;
39654;SDS011;25336;59.944;11.010;2022-12-10T12:31:55;27.05;;;13.63;;
39654;SDS011;25336;59.944;11.010;2022-12-10T12:34:26;23.30;;;10.45;;
39654;SDS011;25336;59.944;11.010;2022-12-10T12:36:57;25.52;;;14.15;;
39654;SDS011;25336;59.944;11.010;2022-12-10T12:39:32;28.48;;;14.85;;
39654;SDS011;25336;59.944;11.010;2022-12-10T12:42:17;19.35;;;9.88;;
39654;SDS011;25336;59.944;11.010;2022-12-10T12:47:41;12.25;;;7.18;;
39654;SDS011;25336;59.944;11.010;2022-12-10T12:52:48;10.63;;;6.40;;
39654;SDS011;25336;59.944;11.010;2022-12-10T12:55:22;9.80;;;6.53;;
39654;SDS011;25336;59.944;11.010;2022-12-10T12:58:15;12.65;;;6.18;;
39654;SDS011;25336;59.944;11.010;2022-12-10T13:01:00;11.73;;;7.13;;
39654;SDS011;25336;59.944;11.010;2022-12-10T13:03:51;11.80;;;5.53;;
39654;SDS011;25336;59.944;11.010;2022-12-10T13:06:27;34.20;;;13.40;;
39654;SDS011;25336;59.944;11.010;2022-12-10T13:08:59;15.43;;;7.30;;
39654;SDS011;25336;59.944;11.010;2022-12-10T13:14:12;50.83;;;18.95;;
39654;SDS011;25336;59.944;11.010;2022-12-10T13:17:01;13.10;;;6.00;;
39654;SDS011;25336;59.944;11.010;2022-12-10T13:19:49;48.17;;;18.40;;
39654;SDS011;25336;59.944;11.010;2022-12-10T13:25:10;114.68;;;39.45;;
39654;SDS011;25336;59.944;11.010;2022-12-10T13:27:40;41.17;;;15.20;;
39654;SDS011;25336;59.944;11.010;2022-12-10T13:32:53;16.38;;;8.35;;
39654;SDS011;25336;59.944;11.010;2022-12-10T13:35:29;11.95;;;7.10;;
39654;SDS011;25336;59.944;11.010;2022-12-10T13:38:17;8.90;;;5.60;;
39654;SDS011;25336;59.944;11.010;2022-12-10T13:40:56;14.95;;;7.75;;
39654;SDS011;25336;59.944;11.010;2022-12-10T13:43:43;17.80;;;8.32;;
39654;SDS011;25336;59.944;11.010;2022-12-10T13:46:55;16.42;;;9.00;;
39654;SDS011;25336;59.944;11.010;2022-12-10T13:49:49;13.20;;;7.85;;
39654;SDS011;25336;59.944;11.010;2022-12-10T14:00:22;16.88;;;9.02;;
39654;SDS011;25336;59.944;11.010;2022-12-10T14:05:22;18.73;;;10.38;;
39654;SDS011;25336;59.944;11.010;2022-12-10T14:08:11;16.27;;;9.43;;
39654;SDS011;25336;59.944;11.010;2022-12-10T14:10:41;33.15;;;19.58;;
39654;SDS011;25336;59.944;11.010;2022-12-10T14:13:10;32.40;;;19.27;;
39654;SDS011;25336;59.944;11.010;2022-12-10T14:15:40;27.17;;;16.25;;
39654;SDS011;25336;59.944;11.010;2022-12-10T14:18:12;18.02;;;11.13;;
39654;SDS011;25336;59.944;11.010;2022-12-10T14:20:42;15.25;;;9.93;;
39654;SDS011;25336;59.944;11.010;2022-12-10T14:26:14;7.53;;;5.93;;
39654;SDS011;25336;59.944;11.010;2022-12-10T14:28:41;11.55;;;7.30;;
39654;SDS011;25336;59.944;11.010;2022-12-10T14:31:26;11.88;;;7.63;;
39654;SDS011;25336;59.944;11.010;2022-12-10T14:33:57;19.35;;;11.52;;
39654;SDS011;25336;59.944;11.010;2022-12-10T14:38:56;20.92;;;10.77;;
39654;SDS011;25336;59.944;11.010;2022-12-10T14:41:23;28.95;;;13.55;;
39654;SDS011;25336;59.944;11.010;2022-12-10T14:43:51;28.65;;;13.90;;
39654;SDS011;25336;59.944;11.010;2022-12-10T14:46:22;82.88;;;34.15;;
39654;SDS011;25336;59.944;11.010;2022-12-10T14:48:51;35.53;;;18.30;;
39654;SDS011;25336;59.944;11.010;2022-12-10T14:51:22;28.17;;;13.55;;
39654;SDS011;25336;59.944;11.010;2022-12-10T14:53:50;26.13;;;14.95;;
39654;SDS011;25336;59.944;11.010;2022-12-10T14:56:23;23.48;;;12.82;;
39654;SDS011;25336;59.944;11.010;2022-12-10T14:59:02;16.08;;;10.68;;
39654;SDS011;25336;59.944;11.010;2022-12-10T15:01:59;14.63;;;7.95;;
39654;SDS011;25336;59.944;11.010;2022-12-10T15:04:40;14.13;;;8.25;;
39654;SDS011;25336;59.944;11.010;2022-12-10T15:07:17;15.57;;;8.57;;
39654;SDS011;25336;59.944;11.010;2022-12-10T15:09:45;18.60;;;9.68;;
39654;SDS011;25336;59.944;11.010;2022-12-10T15:12:32;20.75;;;10.50;;
39654;SDS011;25336;59.944;11.010;2022-12-10T15:15:11;17.65;;;9.10;;
39654;SDS011;25336;59.944;11.010;2022-12-10T15:17:41;15.93;;;9.15;;
39654;SDS011;25336;59.944;11.010;2022-12-10T15:20:17;18.00;;;8.90;;
39654;SDS011;25336;59.944;11.010;2022-12-10T15:22:44;14.60;;;8.02;;
39654;SDS011;25336;59.944;11.010;2022-12-10T15:25:31;17.08;;;8.57;;
39654;SDS011;25336;59.944;11.010;2022-12-10T15:28:19;21.77;;;9.88;;
39654;SDS011;25336;59.944;11.010;2022-12-10T15:30:48;25.83;;;14.48;;
39654;SDS011;25336;59.944;11.010;2022-12-10T15:33:34;28.08;;;11.68;;
39654;SDS011;25336;59.944;11.010;2022-12-10T15:36:03;24.05;;;14.27;;
39654;SDS011;25336;59.944;11.010;2022-12-10T15:38:29;36.33;;;19.48;;
39654;SDS011;25336;59.944;11.010;2022-12-10T15:40:57;43.67;;;22.75;;
39654;SDS011;25336;59.944;11.010;2022-12-10T15:45:50;35.28;;;18.70;;
39654;SDS011;25336;59.944;11.010;2022-12-10T15:48:16;34.60;;;16.33;;
39654;SDS011;25336;59.944;11.010;2022-12-10T15:50:42;42.80;;;20.33;;
39654;SDS011;25336;59.944;11.010;2022-12-10T15:53:13;40.70;;;20.48;;
39654;SDS011;25336;59.944;11.010;2022-12-10T15:55:44;35.50;;;18.75;;
39654;SDS011;25336;59.944;11.010;2022-12-10T15:58:13;29.55;;;15.32;;
39654;SDS011;25336;59.944;11.010;2022-12-10T16:00:39;28.42;;;14.75;;
39654;SDS011;25336;59.944;11.010;2022-12-10T16:03:09;29.48;;;17.25;;
39654;SDS011;25336;59.944;11.010;2022-12-10T16:05:37;41.33;;;23.30;;
39654;SDS011;25336;59.944;11.010;2022-12-10T16:10:49;25.48;;;12.32;;
39654;SDS011;25336;59.944;11.010;2022-12-10T16:13:17;19.58;;;10.85;;
39654;SDS011;25336;59.944;11.010;2022-12-10T16:15:46;18.58;;;10.00;;
39654;SDS011;25336;59.944;11.010;2022-12-10T16:18:16;16.48;;;10.38;;
39654;SDS011;25336;59.944;11.010;2022-12-10T16:20:41;18.30;;;10.65;;
39654;SDS011;25336;59.944;11.010;2022-12-10T16:23:07;16.63;;;10.60;;
39654;SDS011;25336;59.944;11.010;2022-12-10T16:25:33;14.27;;;9.57;;
39654;SDS011;25336;59.944;11.010;2022-12-10T16:28:00;18.75;;;9.95;;
39654;SDS011;25336;59.944;11.010;2022-12-10T16:30:34;26.25;;;13.10;;
39654;SDS011;25336;59.944;11.010;2022-12-10T16:33:01;45.30;;;17.42;;
39654;SDS011;25336;59.944;11.010;2022-12-10T16:35:27;76.05;;;33.55;;
39654;SDS011;25336;59.944;11.010;2022-12-10T16:37:53;61.60;;;26.92;;